Aviation Digital Data Service (ADDS)

Output produced by METARs form (0854 UTC 23 July 2019)
found at http://www.aviationweather.gov/metar/data/
 
Forecast for: LPBJ (BEJA (POR/GER-AF, PT)
Text: TAF LPBJ 230508Z 2306/2406 28005KT CAVOK
Forecast period: 0600 to 1500 UTC 23 July 2019
Forecast type: FROM: standard forecast or significant change
Winds: from the W (280 degrees) at 6 MPH (5 knots; 2.6 m/s)
Visibility: 6 or more miles 10+ km)
Ceiling: unknown
Clouds: missing
Weather: NSW  (no significant weather)
Text: BECMG 2315/2317 34010KT
Forecast period: 1500 UTC 23 July 2019 to 0600 UTC 24 July 2019
Forecast type: BECOMING: Conditions expected to become as follows by 1700 UTC 23 July 2019
Winds: from the NNW (340 degrees) at 12 MPH (10 knots; 5.1 m/s)
Visibility: 6 or more miles 10+ km)
Ceiling: unknown
Clouds: missing
Weather: NSW  (no significant weather)
Text: TEMPO 2317/2319 35012G22KT
Forecast period: 1700 to 1900 UTC 23 July 2019
Forecast type: TEMPORARY: The following changes expected for less than half the time period
Winds: from the N (350 degrees) at 14 MPH (12 knots; 6.2 m/s)
gusting to 25 MPH (22 knots; 11.3 m/s)
Visibility: missing
Ceiling: unknown
Clouds: missing
Weather: no significant weather forecast for this period